createdAt,value
2015-02-26T06:14:40.759Z,100708
2015-02-26T06:14:59.111Z,100705
2015-02-26T06:15:17.793Z,100710
2015-02-26T06:15:36.485Z,100705
2015-02-26T06:15:55.165Z,100710
2015-02-26T06:16:13.196Z,100699
2015-02-26T06:16:31.880Z,100699
2015-02-26T06:16:50.547Z,100708
2015-02-26T06:17:09.224Z,100696
2015-02-26T06:17:27.907Z,100705
2015-02-26T06:17:46.592Z,100708
2015-02-26T06:18:05.300Z,100708
2015-02-26T06:18:23.967Z,100713
2015-02-26T06:18:42.649Z,100702
2015-02-26T06:19:01.163Z,100710
2015-02-26T06:19:19.854Z,100710
2015-02-26T06:19:38.538Z,100707
2015-02-26T06:19:57.217Z,100707
2015-02-26T06:20:15.886Z,100707
2015-02-26T06:20:34.570Z,100699
2015-02-26T06:20:53.249Z,100707
2015-02-26T06:21:11.937Z,100707
2015-02-26T06:21:30.632Z,100699
2015-02-26T06:21:49.295Z,100707
2015-02-26T06:22:07.976Z,100707
2015-02-26T06:22:26.655Z,100699
2015-02-26T06:22:45.348Z,100710
2015-02-26T06:23:04.029Z,100690
2015-02-26T06:23:22.701Z,100693
2015-02-26T06:23:41.390Z,100702
2015-02-26T06:24:00.081Z,100702
2015-02-26T06:24:18.766Z,100699
2015-02-26T06:24:37.443Z,100710
2015-02-26T06:24:56.111Z,100702
2015-02-26T06:25:14.789Z,100702
2015-02-26T06:25:33.485Z,100710
2015-02-26T06:25:52.151Z,100702
2015-02-26T06:26:10.832Z,100705
2015-02-26T06:26:29.514Z,100693
2015-02-26T06:26:48.195Z,100705
2015-02-26T06:27:06.874Z,100702
2015-02-26T06:27:25.567Z,100702
2015-02-26T06:27:42.968Z,100699
2015-02-26T06:28:01.636Z,100702
2015-02-26T06:28:20.315Z,100699
2015-02-26T06:28:38.997Z,100702
2015-02-26T06:28:57.696Z,100704
2015-02-26T06:29:16.370Z,100696
2015-02-26T06:29:35.040Z,100702
2015-02-26T06:29:53.723Z,100696
2015-02-26T06:30:12.416Z,100705
2015-02-26T06:30:31.095Z,100702
2015-02-26T06:30:49.773Z,100693
2015-02-26T06:31:08.456Z,100693
2015-02-26T06:31:27.129Z,100699
2015-02-26T06:31:45.795Z,100710
2015-02-26T06:32:04.469Z,100699
2015-02-26T06:32:23.148Z,100707
2015-02-26T06:32:41.829Z,100693
2015-02-26T06:33:00.522Z,100702
2015-02-26T06:33:19.198Z,100705
2015-02-26T06:33:37.866Z,100702
2015-02-26T06:33:56.558Z,100687
2015-02-26T06:34:15.226Z,100699
2015-02-26T06:34:33.927Z,100690
2015-02-26T06:34:52.634Z,100687
2015-02-26T06:35:11.322Z,100699
2015-02-26T06:35:29.988Z,100690
2015-02-26T06:35:48.687Z,100696
2015-02-26T06:36:07.369Z,100684
2015-02-26T06:36:26.033Z,100696
2015-02-26T06:36:44.720Z,100684
2015-02-26T06:37:03.396Z,100696
2015-02-26T06:37:22.076Z,100690
2015-02-26T06:37:40.763Z,100693
2015-02-26T06:37:59.495Z,100690
2015-02-26T06:38:18.130Z,100690
2015-02-26T06:38:36.821Z,100696
2015-02-26T06:38:55.490Z,100702
2015-02-26T06:39:14.169Z,100693
2015-02-26T06:39:32.848Z,100699
2015-02-26T06:39:51.543Z,100693
2015-02-26T06:40:10.245Z,100702
2015-02-26T06:40:28.923Z,100699
2015-02-26T06:40:47.615Z,100693
2015-02-26T06:41:06.280Z,100690
2015-02-26T06:41:24.973Z,100693
2015-02-26T06:41:43.646Z,100702
2015-02-26T06:42:02.169Z,100708
2015-02-26T06:42:20.860Z,100690
2015-02-26T06:42:39.538Z,100693
2015-02-26T06:42:58.209Z,100699
2015-02-26T06:43:16.888Z,100702
2015-02-26T06:43:35.576Z,100699
2015-02-26T06:43:54.252Z,100699
2015-02-26T06:44:12.927Z,100699
2015-02-26T06:44:31.622Z,100705
2015-02-26T06:44:50.289Z,100705
2015-02-26T06:45:08.967Z,100705
2015-02-26T06:45:27.661Z,100702
2015-02-26T06:45:46.334Z,100693
2015-02-26T06:46:05.014Z,100708
2015-02-26T06:46:23.697Z,100696
2015-02-26T06:46:42.377Z,100696
2015-02-26T06:47:01.077Z,100708
2015-02-26T06:47:19.744Z,100708
2015-02-26T06:47:38.425Z,100708
2015-02-26T06:47:57.124Z,100708
2015-02-26T06:48:15.780Z,100705
2015-02-26T06:48:34.468Z,100708
2015-02-26T06:48:53.135Z,100713
2015-02-26T06:49:11.818Z,100708
2015-02-26T06:49:30.513Z,100708
2015-02-26T06:49:49.192Z,100713
2015-02-26T06:50:07.869Z,100705
2015-02-26T06:50:26.536Z,100702
2015-02-26T06:50:45.230Z,100711
2015-02-26T06:51:03.907Z,100699
2015-02-26T06:51:22.575Z,100699
2015-02-26T06:51:41.257Z,100705
2015-02-26T06:51:59.954Z,100705
2015-02-26T06:52:18.622Z,100699
2015-02-26T06:52:37.305Z,100705
2015-02-26T06:52:55.990Z,100696
2015-02-26T06:53:14.671Z,100708
2015-02-26T06:53:33.349Z,100699
2015-02-26T06:53:52.031Z,100708
2015-02-26T06:54:10.710Z,100699
2015-02-26T06:54:29.390Z,100708
2015-02-26T06:54:48.068Z,100702
2015-02-26T06:55:06.747Z,100702
2015-02-26T06:55:25.438Z,100711
2015-02-26T06:55:44.108Z,100690
2015-02-26T06:56:02.799Z,100705
2015-02-26T06:56:21.475Z,100716
2015-02-26T06:56:40.151Z,100716
2015-02-26T06:56:58.825Z,100699
2015-02-26T06:57:17.517Z,100711
2015-02-26T06:57:36.178Z,100702
2015-02-26T06:57:54.861Z,100711
2015-02-26T06:58:13.561Z,100702
2015-02-26T06:58:32.208Z,100713
2015-02-26T06:58:50.890Z,100702
2015-02-26T06:59:09.586Z,100708
2015-02-26T06:59:28.247Z,100708
2015-02-26T06:59:46.930Z,100705
2015-02-26T07:00:05.613Z,100713
2015-02-26T07:00:24.291Z,100705
2015-02-26T07:00:42.975Z,100708
2015-02-26T07:01:01.657Z,100705
2015-02-26T07:01:20.353Z,100696
2015-02-26T07:01:39.031Z,100702
2015-02-26T07:01:57.701Z,100713
2015-02-26T07:02:16.398Z,100705
2015-02-26T07:02:35.062Z,100705
2015-02-26T07:02:53.740Z,100711
2015-02-26T07:03:12.278Z,100705
2015-02-26T07:03:30.958Z,100708
2015-02-26T07:03:49.648Z,100705
2015-02-26T07:04:08.316Z,100708
2015-02-26T07:04:27.003Z,100713
2015-02-26T07:04:45.674Z,100713
2015-02-26T07:05:04.370Z,100708
2015-02-26T07:05:23.042Z,100705
2015-02-26T07:05:41.721Z,100705
2015-02-26T07:06:00.414Z,100705
2015-02-26T07:06:19.081Z,100705
2015-02-26T07:06:37.773Z,100708
2015-02-26T07:06:56.284Z,100708
2015-02-26T07:07:14.964Z,100708
2015-02-26T07:07:33.641Z,100702
2015-02-26T07:07:52.336Z,100711
2015-02-26T07:08:11.003Z,100708
2015-02-26T07:08:29.686Z,100708
2015-02-26T07:08:48.375Z,100708
2015-02-26T07:09:07.066Z,100708
2015-02-26T07:09:25.743Z,100705
2015-02-26T07:09:44.412Z,100716
2015-02-26T07:10:03.091Z,100705
2015-02-26T07:10:21.785Z,100713
2015-02-26T07:10:40.465Z,100702
2015-02-26T07:10:59.134Z,100708
2015-02-26T07:11:17.819Z,100708
2015-02-26T07:11:36.496Z,100711
2015-02-26T07:11:55.191Z,100711
2015-02-26T07:12:13.859Z,100705
2015-02-26T07:12:32.541Z,100708
2015-02-26T07:12:51.239Z,100708
2015-02-26T07:13:09.922Z,100699
2015-02-26T07:13:28.602Z,100708
2015-02-26T07:13:47.268Z,100708
2015-02-26T07:14:05.949Z,100711
2015-02-26T07:14:23.978Z,100711
2015-02-26T07:14:42.657Z,100708
2015-02-26T07:15:01.351Z,100716
2015-02-26T07:15:20.019Z,100719
2015-02-26T07:15:38.698Z,100711
2015-02-26T07:15:57.378Z,100713
2015-02-26T07:16:16.077Z,100711
2015-02-26T07:16:34.771Z,100713
2015-02-26T07:16:53.447Z,100719
2015-02-26T07:17:12.122Z,100708
2015-02-26T07:17:30.794Z,100714
2015-02-26T07:17:49.492Z,100713
2015-02-26T07:18:08.160Z,100711
2015-02-26T07:18:26.854Z,100705
2015-02-26T07:18:45.526Z,100711
2015-02-26T07:19:04.214Z,100716
2015-02-26T07:19:22.894Z,100711
2015-02-26T07:19:41.562Z,100711
2015-02-26T07:20:00.258Z,100725
2015-02-26T07:20:18.941Z,100714
2015-02-26T07:20:37.625Z,100713
2015-02-26T07:20:56.295Z,100714
2015-02-26T07:21:14.997Z,100716
2015-02-26T07:21:33.677Z,100708
2015-02-26T07:21:52.347Z,100714
2015-02-26T07:22:11.039Z,100711
2015-02-26T07:22:29.705Z,100716
2015-02-26T07:22:48.386Z,100725
2015-02-26T07:23:07.080Z,100719
2015-02-26T07:23:25.745Z,100702
2015-02-26T07:23:44.438Z,100716
2015-02-26T07:24:03.106Z,100711
2015-02-26T07:24:21.804Z,100716
2015-02-26T07:24:40.473Z,100714
2015-02-26T07:24:59.174Z,100713
2015-02-26T07:25:17.833Z,100713
2015-02-26T07:25:36.512Z,100708
2015-02-26T07:25:55.209Z,100716
2015-02-26T07:26:13.888Z,100708
2015-02-26T07:26:32.570Z,100713
2015-02-26T07:26:51.253Z,100713
2015-02-26T07:27:09.932Z,100713
2015-02-26T07:27:28.615Z,100711
2015-02-26T07:27:47.285Z,100716
2015-02-26T07:28:05.982Z,100719
2015-02-26T07:28:24.644Z,100719
2015-02-26T07:28:43.327Z,100719
2015-02-26T07:29:02.009Z,100719
2015-02-26T07:29:20.687Z,100713
2015-02-26T07:29:39.376Z,100713
2015-02-26T07:29:58.058Z,100711
2015-02-26T07:30:16.741Z,100716
2015-02-26T07:30:35.419Z,100719
2015-02-26T07:30:54.105Z,100705
2015-02-26T07:31:12.799Z,100708
2015-02-26T07:31:31.468Z,100711
2015-02-26T07:31:50.146Z,100719
2015-02-26T07:32:08.836Z,100708
2015-02-26T07:32:27.506Z,100711
2015-02-26T07:32:46.182Z,100705
2015-02-26T07:33:04.881Z,100711
2015-02-26T07:33:23.563Z,100716
2015-02-26T07:33:42.246Z,100690
2015-02-26T07:34:00.919Z,100696
2015-02-26T07:34:19.604Z,100705
2015-02-26T07:34:38.285Z,100702
2015-02-26T07:34:56.972Z,100702
2015-02-26T07:35:15.650Z,100705
2015-02-26T07:35:34.329Z,100705
2015-02-26T07:35:53.015Z,100711
2015-02-26T07:36:11.702Z,100702
2015-02-26T07:36:30.383Z,100708
2015-02-26T07:36:49.089Z,100699
2015-02-26T07:37:07.764Z,100705
2015-02-26T07:37:26.455Z,100699
2015-02-26T07:37:45.114Z,100702
2015-02-26T07:38:03.795Z,100708
2015-02-26T07:38:22.497Z,100705
2015-02-26T07:38:41.173Z,100711
2015-02-26T07:38:59.840Z,100711
2015-02-26T07:39:18.532Z,100705
2015-02-26T07:39:37.205Z,100708
2015-02-26T07:39:55.889Z,100705
2015-02-26T07:40:14.571Z,100705
2015-02-26T07:40:33.243Z,100708
2015-02-26T07:40:51.935Z,100702
2015-02-26T07:41:10.602Z,100705
2015-02-26T07:41:29.298Z,100708
2015-02-26T07:41:47.999Z,100711
2015-02-26T07:42:06.669Z,100705
2015-02-26T07:42:25.348Z,100699
2015-02-26T07:42:44.028Z,100714
2015-02-26T07:43:02.712Z,100711
2015-02-26T07:43:21.372Z,100711
2015-02-26T07:43:40.054Z,100705
2015-02-26T07:43:58.733Z,100719
2015-02-26T07:44:17.261Z,100708
2015-02-26T07:44:35.961Z,100708
2015-02-26T07:44:54.629Z,100711
2015-02-26T07:45:13.315Z,100708
2015-02-26T07:45:31.995Z,100708
2015-02-26T07:45:50.683Z,100705
2015-02-26T07:46:09.386Z,100716
2015-02-26T07:46:28.063Z,100708
2015-02-26T07:46:46.731Z,100705
2015-02-26T07:47:05.424Z,100708
2015-02-26T07:47:24.115Z,100708
2015-02-26T07:47:42.791Z,100711
2015-02-26T07:48:01.472Z,100711
2015-02-26T07:48:19.998Z,100714
2015-02-26T07:48:38.678Z,100708
2015-02-26T07:48:57.361Z,100714
2015-02-26T07:49:16.063Z,100714
2015-02-26T07:49:34.596Z,100711
2015-02-26T07:49:53.265Z,100714
2015-02-26T07:50:11.959Z,100722
2015-02-26T07:50:30.644Z,100705
2015-02-26T07:50:49.309Z,100711
2015-02-26T07:51:07.988Z,100708
2015-02-26T07:51:26.674Z,100716
2015-02-26T07:51:45.363Z,100716
2015-02-26T07:52:04.036Z,100708
2015-02-26T07:52:22.719Z,100705
2015-02-26T07:52:41.395Z,100711
2015-02-26T07:53:00.083Z,100708
2015-02-26T07:53:18.765Z,100708
2015-02-26T07:53:37.458Z,100702
2015-02-26T07:53:56.127Z,100711
2015-02-26T07:54:14.807Z,100714
2015-02-26T07:54:33.483Z,100711
2015-02-26T07:54:52.168Z,100711
2015-02-26T07:55:10.860Z,100714
2015-02-26T07:55:29.529Z,100708
2015-02-26T07:55:48.229Z,100714
2015-02-26T07:56:06.910Z,100711
2015-02-26T07:56:25.572Z,100711
2015-02-26T07:56:44.252Z,100699
2015-02-26T07:57:02.946Z,100711
2015-02-26T07:57:21.641Z,100719
2015-02-26T07:57:40.317Z,100716
2015-02-26T07:57:58.840Z,100711
2015-02-26T07:58:17.531Z,100716
2015-02-26T07:58:36.200Z,100722
2015-02-26T07:58:54.880Z,100711
2015-02-26T07:59:13.576Z,100711
2015-02-26T07:59:32.257Z,100711
2015-02-26T07:59:50.949Z,100717
2015-02-26T08:00:08.970Z,100711
2015-02-26T08:00:27.649Z,100705
2015-02-26T08:00:46.329Z,100714
2015-02-26T08:01:05.009Z,100717
2015-02-26T08:01:23.694Z,100711
2015-02-26T08:01:42.383Z,100711
2015-02-26T08:02:01.053Z,100719
2015-02-26T08:02:19.750Z,100711
2015-02-26T08:02:38.418Z,100714
2015-02-26T08:02:57.116Z,100717
2015-02-26T08:03:15.804Z,100714
2015-02-26T08:03:34.470Z,100708
2015-02-26T08:03:53.166Z,100719
2015-02-26T08:04:11.832Z,100708
2015-02-26T08:04:30.509Z,100711
2015-02-26T08:04:49.193Z,100702
2015-02-26T08:05:07.874Z,100708
2015-02-26T08:05:26.565Z,100708
2015-02-26T08:05:45.254Z,100702
2015-02-26T08:06:03.935Z,100714
2015-02-26T08:06:22.607Z,100711
2015-02-26T08:06:41.286Z,100702
2015-02-26T08:06:59.967Z,100705
2015-02-26T08:07:18.666Z,100711
2015-02-26T08:07:37.324Z,100711
2015-02-26T08:07:56.023Z,100714
2015-02-26T08:08:14.687Z,100714
2015-02-26T08:08:33.381Z,100717
2015-02-26T08:08:52.062Z,100714
2015-02-26T08:09:10.740Z,100714
2015-02-26T08:09:29.432Z,100708
2015-02-26T08:09:48.099Z,100711
2015-02-26T08:10:06.778Z,100711
2015-02-26T08:10:25.456Z,100708
2015-02-26T08:10:44.137Z,100705
2015-02-26T08:11:02.817Z,100711
2015-02-26T08:11:21.499Z,100714
2015-02-26T08:11:40.189Z,100719
2015-02-26T08:11:58.880Z,100719
2015-02-26T08:12:17.554Z,100714
2015-02-26T08:12:36.231Z,100705
2015-02-26T08:12:54.916Z,100711
2015-02-26T08:13:13.610Z,100711
2015-02-26T08:13:32.274Z,100714
2015-02-26T08:13:50.963Z,100714
2015-02-26T08:14:09.635Z,100714
2015-02-26T08:14:28.314Z,100714
2015-02-26T08:14:46.989Z,100714
2015-02-26T08:15:05.685Z,100714
2015-02-26T08:15:24.358Z,100711
2015-02-26T08:15:43.055Z,100705
2015-02-26T08:16:01.722Z,100711
2015-02-26T08:16:20.414Z,100714
2015-02-26T08:16:39.100Z,100714
2015-02-26T08:16:57.783Z,100717
2015-02-26T08:17:16.449Z,100719
2015-02-26T08:17:35.140Z,100711
2015-02-26T08:17:53.803Z,100719
2015-02-26T08:18:12.498Z,100722
2015-02-26T08:18:31.171Z,100719
2015-02-26T08:18:49.851Z,100711
2015-02-26T08:19:08.545Z,100714
2015-02-26T08:19:27.224Z,100717
2015-02-26T08:19:45.733Z,100714
2015-02-26T08:20:04.417Z,100714
2015-02-26T08:20:23.114Z,100702
2015-02-26T08:20:41.784Z,100714
2015-02-26T08:21:00.481Z,100714
2015-02-26T08:21:19.149Z,100705
2015-02-26T08:21:37.831Z,100717
2015-02-26T08:21:56.522Z,100719
2015-02-26T08:22:15.190Z,100714
2015-02-26T08:22:33.883Z,100711
2015-02-26T08:22:52.560Z,100717
2015-02-26T08:23:11.239Z,100702
2015-02-26T08:23:29.918Z,100711
2015-02-26T08:23:48.587Z,100708
2015-02-26T08:24:07.268Z,100711
2015-02-26T08:24:25.966Z,100711
2015-02-26T08:24:44.627Z,100702
2015-02-26T08:25:03.317Z,100708
2015-02-26T08:25:22.001Z,100699
2015-02-26T08:25:40.661Z,100708
2015-02-26T08:25:59.344Z,100699
2015-02-26T08:26:17.894Z,100711
2015-02-26T08:26:36.558Z,100702
2015-02-26T08:26:55.236Z,100705
2015-02-26T08:27:13.922Z,100711
2015-02-26T08:27:32.600Z,100702
2015-02-26T08:27:51.283Z,100702
2015-02-26T08:28:09.965Z,100708
2015-02-26T08:28:28.662Z,100702
2015-02-26T08:28:47.332Z,100711
2015-02-26T08:29:06.013Z,100711
2015-02-26T08:29:24.706Z,100708
2015-02-26T08:29:43.373Z,100711
2015-02-26T08:30:02.069Z,100705
2015-02-26T08:30:20.735Z,100705
2015-02-26T08:30:39.432Z,100702
2015-02-26T08:30:58.117Z,100708
2015-02-26T08:31:16.799Z,100705
2015-02-26T08:31:35.499Z,100702
2015-02-26T08:31:54.178Z,100699
2015-02-26T08:32:12.879Z,100705
2015-02-26T08:32:31.536Z,100702
2015-02-26T08:32:50.214Z,100705
2015-02-26T08:33:08.908Z,100705
2015-02-26T08:33:27.585Z,100708
2015-02-26T08:33:46.252Z,100699
2015-02-26T08:34:04.948Z,100708
2015-02-26T08:34:23.622Z,100711
2015-02-26T08:34:42.325Z,100702
2015-02-26T08:35:00.999Z,100711
2015-02-26T08:35:19.664Z,100694
2015-02-26T08:35:38.358Z,100702
2015-02-26T08:35:57.040Z,100702
2015-02-26T08:36:15.720Z,100699
2015-02-26T08:36:34.398Z,100694
2015-02-26T08:36:53.061Z,100699
2015-02-26T08:37:11.758Z,100702
2015-02-26T08:37:30.426Z,100694
2015-02-26T08:37:49.107Z,100699
2015-02-26T08:38:07.792Z,100699
2015-02-26T08:38:26.474Z,100702
2015-02-26T08:38:45.149Z,100708
2015-02-26T08:39:03.843Z,100696
2015-02-26T08:39:22.526Z,100699
2015-02-26T08:39:41.204Z,100693
2015-02-26T08:39:59.872Z,100693
2015-02-26T08:40:18.551Z,100699
2015-02-26T08:40:37.234Z,100693
2015-02-26T08:40:55.914Z,100691
2015-02-26T08:41:14.615Z,100699
2015-02-26T08:41:33.297Z,100691
2015-02-26T08:41:51.968Z,100696
2015-02-26T08:42:10.640Z,100694
2015-02-26T08:42:29.331Z,100696
2015-02-26T08:42:48.005Z,100705
2015-02-26T08:43:06.695Z,100699
2015-02-26T08:43:25.372Z,100694
2015-02-26T08:43:44.039Z,100694
2015-02-26T08:44:02.736Z,100696
2015-02-26T08:44:21.409Z,100688
2015-02-26T08:44:40.089Z,100691
2015-02-26T08:44:58.773Z,100691
2015-02-26T08:45:17.450Z,100691
2015-02-26T08:45:36.130Z,100696
2015-02-26T08:45:54.821Z,100696
2015-02-26T08:46:13.487Z,100691
2015-02-26T08:46:32.167Z,100699
2015-02-26T08:46:50.849Z,100682
2015-02-26T08:47:09.527Z,100697
2015-02-26T08:47:28.210Z,100685
2015-02-26T08:47:46.890Z,100691
2015-02-26T08:48:05.574Z,100697
2015-02-26T08:48:24.254Z,100682
2015-02-26T08:48:42.931Z,100685
2015-02-26T08:49:01.611Z,100691
2015-02-26T08:49:20.315Z,100685
2015-02-26T08:49:38.987Z,100688
2015-02-26T08:49:57.662Z,100688
2015-02-26T08:50:16.326Z,100702
2015-02-26T08:50:35.008Z,100694
2015-02-26T08:50:53.688Z,100691
2015-02-26T08:51:12.383Z,100694
2015-02-26T08:51:31.058Z,100702
2015-02-26T08:51:49.753Z,100691
2015-02-26T08:52:08.419Z,100685
2015-02-26T08:52:27.109Z,100679
2015-02-26T08:52:45.788Z,100679
2015-02-26T08:53:04.456Z,100694
2015-02-26T08:53:23.134Z,100688
2015-02-26T08:53:41.827Z,100685
2015-02-26T08:54:00.498Z,100682
2015-02-26T08:54:19.182Z,100682
2015-02-26T08:54:37.868Z,100691
2015-02-26T08:54:56.569Z,100697
2015-02-26T08:55:15.241Z,100691
2015-02-26T08:55:33.921Z,100682
2015-02-26T08:55:52.630Z,100685
2015-02-26T08:56:11.298Z,100682
2015-02-26T08:56:29.834Z,100688
2015-02-26T08:56:48.503Z,100679
2015-02-26T08:57:07.205Z,100676
2015-02-26T08:57:25.874Z,100682
2015-02-26T08:57:44.559Z,100691
2015-02-26T08:58:03.235Z,100682
2015-02-26T08:58:21.931Z,100685
2015-02-26T08:58:40.600Z,100679
2015-02-26T08:58:59.293Z,100688
2015-02-26T08:59:17.974Z,100685
2015-02-26T08:59:36.656Z,100679
2015-02-26T08:59:55.326Z,100682
2015-02-26T09:00:14.022Z,100679
2015-02-26T09:00:32.688Z,100691
2015-02-26T09:00:51.375Z,100688
2015-02-26T09:01:10.084Z,100694
2015-02-26T09:01:28.765Z,100679
2015-02-26T09:01:47.436Z,100691
2015-02-26T09:02:06.119Z,100691
2015-02-26T09:02:24.801Z,100679
2015-02-26T09:02:43.479Z,100685
2015-02-26T09:03:02.175Z,100685
2015-02-26T09:03:20.851Z,100688
2015-02-26T09:03:39.517Z,100682
2015-02-26T09:03:58.211Z,100691
2015-02-26T09:04:16.878Z,100691
2015-02-26T09:04:35.575Z,100685
2015-02-26T09:04:54.270Z,100697
2015-02-26T09:05:12.938Z,100691
2015-02-26T09:05:31.639Z,100691
2015-02-26T09:05:50.303Z,100676
2015-02-26T09:06:08.988Z,100679
2015-02-26T09:06:27.673Z,100697
2015-02-26T09:06:46.356Z,100682
2015-02-26T09:07:05.042Z,100691
2015-02-26T09:07:23.721Z,100697
2015-02-26T09:07:42.399Z,100694
2015-02-26T09:08:00.436Z,100688
2015-02-26T09:08:19.129Z,100682
2015-02-26T09:08:37.798Z,100691
2015-02-26T09:08:56.480Z,100682
2015-02-26T09:09:15.157Z,100685
2015-02-26T09:09:33.847Z,100679
2015-02-26T09:09:52.524Z,100682
2015-02-26T09:10:11.195Z,100682
2015-02-26T09:10:29.874Z,100676
2015-02-26T09:10:48.553Z,100682
2015-02-26T09:11:07.238Z,100685
2015-02-26T09:11:25.934Z,100688
2015-02-26T09:11:44.608Z,100685
2015-02-26T09:12:03.293Z,100682
2015-02-26T09:12:21.971Z,100691
2015-02-26T09:12:40.664Z,100679
2015-02-26T09:12:59.347Z,100682
2015-02-26T09:13:18.020Z,100676
2015-02-26T09:13:36.706Z,100679
2015-02-26T09:13:55.374Z,100671
2015-02-26T09:14:14.054Z,100674
2015-02-26T09:14:32.747Z,100682
2015-02-26T09:14:51.417Z,100682
2015-02-26T09:15:10.101Z,100682
2015-02-26T09:15:28.784Z,100674
2015-02-26T09:15:47.472Z,100665
2015-02-26T09:16:06.170Z,100668
2015-02-26T09:16:24.828Z,100676
2015-02-26T09:16:43.521Z,100685
2015-02-26T09:17:02.188Z,100676
2015-02-26T09:17:20.883Z,100682
2015-02-26T09:17:39.562Z,100674
2015-02-26T09:17:58.234Z,100674
2015-02-26T09:18:16.914Z,100682
2015-02-26T09:18:35.609Z,100674
2015-02-26T09:18:54.277Z,100674
2015-02-26T09:19:12.970Z,100671
2015-02-26T09:19:31.636Z,100668
2015-02-26T09:19:50.325Z,100668
2015-02-26T09:20:09.015Z,100665
2015-02-26T09:20:27.681Z,100671
2015-02-26T09:20:46.373Z,100671
2015-02-26T09:21:05.057Z,100668
2015-02-26T09:21:23.728Z,100671
2015-02-26T09:21:42.413Z,100662
2015-02-26T09:22:01.096Z,100656
2015-02-26T09:22:19.790Z,100662
2015-02-26T09:22:38.472Z,100676
2015-02-26T09:22:57.139Z,100671
2015-02-26T09:23:15.832Z,100668
2015-02-26T09:23:34.506Z,100656
2015-02-26T09:23:53.219Z,100671
2015-02-26T09:24:11.898Z,100668
2015-02-26T09:24:30.571Z,100659
2015-02-26T09:24:49.260Z,100668
2015-02-26T09:25:07.952Z,100659
2015-02-26T09:25:26.636Z,100671
2015-02-26T09:25:45.318Z,100671
2015-02-26T09:26:03.991Z,100662
2015-02-26T09:26:22.684Z,100662
2015-02-26T09:26:41.353Z,100668
2015-02-26T09:27:00.034Z,100665
2015-02-26T09:27:18.730Z,100654
2015-02-26T09:27:37.396Z,100662
2015-02-26T09:27:56.076Z,100665
2015-02-26T09:28:14.763Z,100665
2015-02-26T09:28:33.447Z,100656
2015-02-26T09:28:52.140Z,100662
2015-02-26T09:29:10.810Z,100665
2015-02-26T09:29:29.492Z,100668
2015-02-26T09:29:48.178Z,100662
2015-02-26T09:30:06.851Z,100654
2015-02-26T09:30:25.527Z,100662
2015-02-26T09:30:44.220Z,100665
2015-02-26T09:31:02.889Z,100665
2015-02-26T09:31:21.588Z,100659
2015-02-26T09:31:40.256Z,100654
2015-02-26T09:31:58.937Z,100671
2015-02-26T09:32:17.628Z,100665
2015-02-26T09:32:36.298Z,100662
2015-02-26T09:32:54.977Z,100659
2015-02-26T09:33:13.676Z,100665
2015-02-26T09:33:32.341Z,100654
2015-02-26T09:33:51.020Z,100654
2015-02-26T09:34:09.711Z,100659
2015-02-26T09:34:28.390Z,100656
2015-02-26T09:34:47.080Z,100654
2015-02-26T09:35:05.607Z,100656
2015-02-26T09:35:24.294Z,100659
2015-02-26T09:35:42.966Z,100665
2015-02-26T09:36:01.659Z,100659
2015-02-26T09:36:20.330Z,100643
2015-02-26T09:36:39.010Z,100652
2015-02-26T09:36:57.694Z,100652
2015-02-26T09:37:16.390Z,100654
2015-02-26T09:37:34.421Z,100654
2015-02-26T09:37:53.102Z,100646
2015-02-26T09:38:11.795Z,100646
2015-02-26T09:38:30.490Z,100652
2015-02-26T09:38:49.175Z,100652
2015-02-26T09:39:07.857Z,100646
2015-02-26T09:39:26.524Z,100649
2015-02-26T09:39:45.207Z,100646
2015-02-26T09:40:03.892Z,100652
2015-02-26T09:40:22.570Z,100649
2015-02-26T09:40:41.267Z,100643
2015-02-26T09:40:59.935Z,100651
2015-02-26T09:41:18.617Z,100654
2015-02-26T09:41:37.301Z,100646
2015-02-26T09:41:55.984Z,100649
2015-02-26T09:42:14.671Z,100651
2015-02-26T09:42:33.358Z,100637
2015-02-26T09:42:52.041Z,100646
2015-02-26T09:43:10.730Z,100648
2015-02-26T09:43:29.408Z,100640
2015-02-26T09:43:48.101Z,100646
2015-02-26T09:44:06.788Z,100637
2015-02-26T09:44:25.471Z,100646
2015-02-26T09:44:44.141Z,100643
2015-02-26T09:45:02.824Z,100646
2015-02-26T09:45:21.516Z,100637
2015-02-26T09:45:40.195Z,100640
2015-02-26T09:45:58.870Z,100631
2015-02-26T09:46:18.944Z,100631
2015-02-26T09:46:38.159Z,100637
2015-02-26T09:46:56.852Z,100634
2015-02-26T09:47:15.524Z,100643
2015-02-26T09:47:34.208Z,100634
2015-02-26T09:47:52.911Z,100640
2015-02-26T09:48:11.585Z,100634
2015-02-26T09:48:30.262Z,100634
2015-02-26T09:48:48.947Z,100649
2015-02-26T09:49:07.635Z,100640
2015-02-26T09:49:26.317Z,100625
2015-02-26T09:49:44.999Z,100637
2015-02-26T09:50:03.681Z,100643
2015-02-26T09:50:22.364Z,100640
2015-02-26T09:50:41.042Z,100651
2015-02-26T09:50:59.075Z,100637
2015-02-26T09:51:17.775Z,100640
2015-02-26T09:51:36.444Z,100637
2015-02-26T09:51:55.136Z,100649
2015-02-26T09:52:13.808Z,100640
2015-02-26T09:52:32.490Z,100646
2015-02-26T09:52:51.181Z,100637
2015-02-26T09:53:09.849Z,100640
2015-02-26T09:53:28.531Z,100640
2015-02-26T09:53:47.219Z,100637
2015-02-26T09:54:05.902Z,100640
2015-02-26T09:54:24.600Z,100640
2015-02-26T09:54:43.277Z,100631
2015-02-26T09:55:01.978Z,100637
2015-02-26T09:55:20.662Z,100634
2015-02-26T09:55:39.349Z,100631
2015-02-26T09:55:57.851Z,100646
2015-02-26T09:56:16.535Z,100646
2015-02-26T09:56:35.220Z,100643
2015-02-26T09:56:53.898Z,100637
2015-02-26T09:57:12.596Z,100643
2015-02-26T09:57:31.301Z,100643
2015-02-26T09:57:49.970Z,100634
2015-02-26T09:58:08.652Z,100634
2015-02-26T09:58:27.341Z,100634
2015-02-26T09:58:46.011Z,100640
2015-02-26T09:59:04.693Z,100634
2015-02-26T09:59:23.383Z,100626
2015-02-26T09:59:42.053Z,100634
2015-02-26T10:00:00.758Z,100640
2015-02-26T10:00:19.436Z,100634
2015-02-26T10:00:38.125Z,100634
2015-02-26T10:00:56.823Z,100643
2015-02-26T10:01:15.490Z,100634
2015-02-26T10:01:34.187Z,100631
2015-02-26T10:01:52.861Z,100634
2015-02-26T10:02:11.546Z,100637
2015-02-26T10:02:30.219Z,100637
2015-02-26T10:02:48.907Z,100637
2015-02-26T10:03:07.607Z,100634
2015-02-26T10:03:26.281Z,100623
2015-02-26T10:03:44.976Z,100631
2015-02-26T10:04:03.652Z,100640
2015-02-26T10:04:22.338Z,100629
2015-02-26T10:04:41.150Z,100629
2015-02-26T10:04:59.832Z,100626
2015-02-26T10:05:18.523Z,100631
2015-02-26T10:05:37.206Z,100623
2015-02-26T10:05:55.885Z,100626
2015-02-26T10:06:14.577Z,100631
2015-02-26T10:06:33.263Z,100623
2015-02-26T10:06:51.957Z,100611
2015-02-26T10:07:10.637Z,100617
2015-02-26T10:07:29.327Z,100626